Time;durP1;ratioP1;P1;durP2;ratioP2;P2;SDS_P1;SDS_P2;PMS_P1;PMS_P2;Temp;Humidity;BMP_temperature;BMP_pressure;BME280_temperature;BME280_humidity;BME280_pressure;Samples;Min_cycle;Max_cycle;Signal;HPM_P1;HPM_P2
2024/01/04 00:02:03;;;;;;;15.73;8.85;;;;;;;;;;6247188;28;20048;-72
2024/01/04 00:05:05;;;;;;;14.50;9.38;;;;;;;;;;6280207;28;20047;-73
2024/01/04 00:08:07;;;;;;;13.77;8.25;;;;;;;;;;6296811;28;20885;-73
2024/01/04 00:11:09;;;;;;;14.18;7.70;;;;;;;;;;6303966;28;20037;-73
2024/01/04 00:14:11;;;;;;;11.02;7.53;;;;;;;;;;6280132;28;20523;-73
2024/01/04 00:17:13;;;;;;;12.57;8.07;;;;;;;;;;6289187;28;20051;-73
2024/01/04 00:20:15;;;;;;;12.63;7.10;;;;;;;;;;6274711;28;20144;-73
2024/01/04 00:23:17;;;;;;;9.82;5.85;;;;;;;;;;6291788;28;20036;-73
2024/01/04 00:26:19;;;;;;;9.50;6.45;;;;;;;;;;6297916;28;20519;-73
2024/01/04 00:29:22;;;;;;;9.00;5.88;;;;;;;;;;6263961;28;20041;-73
2024/01/04 00:32:25;;;;;;;17.17;8.52;;;;;;;;;;6282735;28;20565;-73
2024/01/04 00:35:28;;;;;;;12.98;7.03;;;;;;;;;;6280762;28;20045;-73
2024/01/04 00:38:31;;;;;;;9.77;5.65;;;;;;;;;;6298941;28;20048;-73
2024/01/04 00:41:33;;;;;;;7.53;5.03;;;;;;;;;;6284704;28;20043;-73
2024/01/04 00:44:35;;;;;;;8.07;4.85;;;;;;;;;;6290295;28;20055;-73
2024/01/04 00:47:37;;;;;;;8.88;4.57;;;;;;;;;;6264840;28;20048;-74
2024/01/04 00:50:42;;;;;;;9.48;4.72;;;;;;;;;;6296632;28;20040;-73
2024/01/04 00:53:44;;;;;;;8.38;4.38;;;;;;;;;;6300018;28;20097;-73
2024/01/04 00:56:46;;;;;;;7.72;4.40;;;;;;;;;;6280308;28;20638;-73
2024/01/04 00:59:48;;;;;;;6.55;4.50;;;;;;;;;;6253191;28;20059;-73
2024/01/04 01:02:50;;;;;;;10.00;4.22;;;;;;;;;;6290658;28;20156;-73
2024/01/04 01:05:53;;;;;;;7.68;4.00;;;;;;;;;;6274360;28;20131;-73
2024/01/04 01:08:56;;;;;;;8.60;4.20;;;;;;;;;;6282744;28;20043;-72
2024/01/04 01:11:58;;;;;;;18.88;11.98;;;;;;;;;;6282344;28;20044;-72
2024/01/04 01:15:00;;;;;;;10.13;5.30;;;;;;;;;;6281476;28;20040;-73
2024/01/04 01:18:03;;;;;;;13.48;7.13;;;;;;;;;;6267930;28;20613;-73
2024/01/04 01:21:06;;;;;;;17.10;9.48;;;;;;;;;;6309044;28;20151;-73
2024/01/04 01:24:09;;;;;;;14.90;7.22;;;;;;;;;;6263110;28;20478;-73
2024/01/04 01:27:11;;;;;;;9.95;5.60;;;;;;;;;;6278569;28;20037;-73
2024/01/04 01:30:14;;;;;;;8.85;5.50;;;;;;;;;;6280863;28;20036;-73
2024/01/04 01:33:17;;;;;;;9.20;5.78;;;;;;;;;;6281267;28;20043;-73
2024/01/04 01:36:20;;;;;;;9.52;5.07;;;;;;;;;;6288402;28;20044;-73
2024/01/04 01:39:22;;;;;;;7.60;4.25;;;;;;;;;;6272192;28;20041;-73
2024/01/04 01:42:24;;;;;;;7.68;4.93;;;;;;;;;;6273192;28;20098;-73
2024/01/04 01:45:27;;;;;;;7.55;5.78;;;;;;;;;;6260430;28;20538;-73
2024/01/04 01:48:29;;;;;;;9.90;5.70;;;;;;;;;;6259162;28;20060;-73
2024/01/04 01:51:32;;;;;;;7.72;3.65;;;;;;;;;;6285743;28;20090;-73
2024/01/04 01:54:34;;;;;;;7.07;4.47;;;;;;;;;;6276036;28;20752;-73
2024/01/04 01:57:36;;;;;;;6.97;5.55;;;;;;;;;;6303930;28;20531;-73
2024/01/04 02:00:39;;;;;;;10.50;5.10;;;;;;;;;;6273579;28;20077;-73
2024/01/04 02:03:42;;;;;;;6.93;4.50;;;;;;;;;;6266607;28;20048;-73
2024/01/04 02:06:44;;;;;;;8.80;4.50;;;;;;;;;;6278376;28;20036;-73
2024/01/04 02:09:46;;;;;;;5.93;4.72;;;;;;;;;;6295397;28;20052;-73
2024/01/04 02:12:48;;;;;;;6.43;4.35;;;;;;;;;;6259090;28;20124;-73
2024/01/04 02:15:51;;;;;;;11.23;4.78;;;;;;;;;;6297995;28;20048;-74
2024/01/04 02:18:53;;;;;;;10.00;5.40;;;;;;;;;;6304687;28;20040;-74
2024/01/04 02:21:55;;;;;;;8.73;5.32;;;;;;;;;;6281557;28;20053;-73
2024/01/04 02:24:57;;;;;;;9.77;5.95;;;;;;;;;;6292068;28;20151;-73
2024/01/04 02:27:59;;;;;;;6.78;4.55;;;;;;;;;;6291977;28;20586;-73
2024/01/04 02:31:01;;;;;;;9.77;4.85;;;;;;;;;;6290450;28;20051;-73
2024/01/04 02:34:04;;;;;;;7.05;4.15;;;;;;;;;;6278061;28;20564;-73
2024/01/04 02:37:06;;;;;;;7.53;4.30;;;;;;;;;;6273047;28;20029;-73
2024/01/04 02:40:09;;;;;;;6.15;4.47;;;;;;;;;;6305423;28;20044;-73
2024/01/04 02:43:12;;;;;;;7.57;4.97;;;;;;;;;;6296930;28;20534;-73
2024/01/04 02:46:14;;;;;;;8.40;4.55;;;;;;;;;;6290146;28;20052;-73
2024/01/04 02:49:16;;;;;;;7.55;3.63;;;;;;;;;;6277444;28;20048;-73
2024/01/04 02:52:19;;;;;;;8.80;4.25;;;;;;;;;;6282640;28;20098;-73
2024/01/04 02:55:23;;;;;;;7.97;3.65;;;;;;;;;;6281766;28;20517;-73
2024/01/04 02:58:27;;;;;;;9.07;3.67;;;;;;;;;;6287416;28;20135;-74
2024/01/04 03:01:29;;;;;;;6.60;4.75;;;;;;;;;;6257791;28;20538;-74
2024/01/04 03:04:31;;;;;;;8.77;4.68;;;;;;;;;;6272896;28;20051;-74
2024/01/04 03:07:34;;;;;;;6.47;4.38;;;;;;;;;;6289706;28;20044;-74
2024/01/04 03:10:37;;;;;;;6.13;3.30;;;;;;;;;;6279761;28;20060;-74
2024/01/04 03:13:39;;;;;;;6.45;4.25;;;;;;;;;;6284162;28;20128;-74
2024/01/04 03:16:41;;;;;;;8.00;3.83;;;;;;;;;;6298999;28;20036;-74
2024/01/04 03:19:43;;;;;;;7.80;4.90;;;;;;;;;;6290054;28;20105;-75
2024/01/04 03:22:45;;;;;;;5.82;2.92;;;;;;;;;;6275464;28;20079;-74
2024/01/04 03:25:47;;;;;;;5.18;3.03;;;;;;;;;;6263069;28;20044;-74
2024/01/04 03:28:50;;;;;;;6.20;3.67;;;;;;;;;;6278391;28;20486;-74
2024/01/04 03:31:52;;;;;;;8.30;4.03;;;;;;;;;;6279141;28;20092;-74
2024/01/04 03:34:56;;;;;;;6.93;4.15;;;;;;;;;;6290093;28;20078;-74
2024/01/04 03:37:58;;;;;;;6.07;3.88;;;;;;;;;;6257726;28;20047;-74
2024/01/04 03:41:02;;;;;;;5.80;4.03;;;;;;;;;;6291228;28;20119;-74
2024/01/04 03:44:04;;;;;;;7.25;3.22;;;;;;;;;;6266385;28;20156;-74
2024/01/04 03:47:09;;;;;;;4.47;2.92;;;;;;;;;;6293044;28;20048;-75
2024/01/04 03:50:11;;;;;;;6.80;3.85;;;;;;;;;;6273812;28;20053;-74
2024/01/04 03:53:13;;;;;;;5.13;3.63;;;;;;;;;;6300273;28;20079;-74
2024/01/04 03:56:16;;;;;;;7.03;4.93;;;;;;;;;;6252860;28;20040;-74
2024/01/04 03:59:18;;;;;;;7.57;3.72;;;;;;;;;;6259648;28;20040;-74
2024/01/04 04:02:20;;;;;;;7.43;4.40;;;;;;;;;;6290511;28;20077;-74
2024/01/04 04:05:22;;;;;;;6.32;3.63;;;;;;;;;;6262482;28;20044;-74
2024/01/04 04:08:24;;;;;;;7.03;3.90;;;;;;;;;;6281387;28;20074;-74
2024/01/04 04:11:26;;;;;;;6.18;4.07;;;;;;;;;;6274958;28;20610;-74
2024/01/04 04:14:33;;;;;;;6.50;4.28;;;;;;;;;;6286479;28;20610;-74
2024/01/04 04:17:36;;;;;;;7.32;3.83;;;;;;;;;;6279355;28;20048;-74
2024/01/04 04:20:39;;;;;;;5.80;3.65;;;;;;;;;;6298532;28;20678;-74
2024/01/04 04:23:42;;;;;;;9.85;4.07;;;;;;;;;;6269135;28;20048;-74
2024/01/04 04:26:44;;;;;;;4.68;3.63;;;;;;;;;;6259351;28;20051;-74
2024/01/04 04:29:46;;;;;;;6.25;4.10;;;;;;;;;;6301706;28;20641;-74
2024/01/04 04:32:48;;;;;;;6.03;3.50;;;;;;;;;;6273158;28;20060;-72
2024/01/04 04:35:50;;;;;;;5.28;2.83;;;;;;;;;;6272689;28;20067;-72
2024/01/04 04:39:02;;;;;;;5.25;2.88;;;;;;;;;;6293134;28;20051;-72
2024/01/04 04:42:04;;;;;;;4.68;2.80;;;;;;;;;;6275687;28;20076;-72
2024/01/04 04:45:08;;;;;;;9.32;3.33;;;;;;;;;;6295180;28;20579;-72
2024/01/04 04:48:10;;;;;;;5.82;3.08;;;;;;;;;;6267354;28;20051;-72
2024/01/04 04:51:12;;;;;;;8.18;4.65;;;;;;;;;;6274479;28;20040;-72
2024/01/04 04:54:18;;;;;;;11.18;8.05;;;;;;;;;;6271625;28;20036;-72
2024/01/04 04:57:20;;;;;;;13.10;5.45;;;;;;;;;;6281823;28;20427;-74
2024/01/04 05:00:22;;;;;;;6.07;2.83;;;;;;;;;;6291991;28;20776;-72
2024/01/04 05:03:24;;;;;;;5.03;2.30;;;;;;;;;;6291501;28;20408;-72
2024/01/04 05:06:27;;;;;;;6.70;3.25;;;;;;;;;;6310288;28;20130;-72
2024/01/04 05:09:29;;;;;;;7.32;4.07;;;;;;;;;;6274147;28;20442;-72
2024/01/04 05:12:31;;;;;;;6.40;4.72;;;;;;;;;;6286953;28;20052;-72
2024/01/04 05:15:34;;;;;;;6.15;3.28;;;;;;;;;;6297766;28;20269;-74
2024/01/04 05:18:36;;;;;;;5.13;2.97;;;;;;;;;;6326274;28;20044;-74
2024/01/04 05:21:39;;;;;;;6.13;3.80;;;;;;;;;;6281721;28;20083;-73
2024/01/04 05:24:41;;;;;;;7.85;4.70;;;;;;;;;;6273498;28;20051;-72
2024/01/04 05:27:43;;;;;;;4.72;3.17;;;;;;;;;;6260048;28;20113;-73
2024/01/04 05:30:46;;;;;;;6.93;6.22;;;;;;;;;;6254689;28;20536;-73
2024/01/04 05:33:48;;;;;;;6.65;4.32;;;;;;;;;;6295577;28;20055;-72
2024/01/04 05:36:51;;;;;;;7.40;4.22;;;;;;;;;;6263177;28;20478;-72
2024/01/04 05:39:53;;;;;;;10.05;5.35;;;;;;;;;;6298903;28;20044;-72
2024/01/04 05:42:58;;;;;;;10.82;7.13;;;;;;;;;;6285943;28;20526;-72
2024/01/04 05:46:05;;;;;;;10.75;7.78;;;;;;;;;;6268653;28;20060;-73
2024/01/04 05:49:07;;;;;;;12.75;6.40;;;;;;;;;;6291918;28;20048;-73
2024/01/04 05:52:09;;;;;;;9.98;7.10;;;;;;;;;;6278503;28;20073;-72
2024/01/04 05:55:11;;;;;;;9.10;6.65;;;;;;;;;;6295091;28;20529;-73
2024/01/04 05:58:13;;;;;;;8.65;5.13;;;;;;;;;;6299222;28;20210;-72
2024/01/04 06:01:16;;;;;;;9.63;5.57;;;;;;;;;;6285547;28;20036;-72
2024/01/04 06:04:18;;;;;;;11.65;5.47;;;;;;;;;;6259479;28;20152;-73
2024/01/04 06:07:23;;;;;;;7.13;3.78;;;;;;;;;;6287045;28;20109;-73
2024/01/04 06:10:28;;;;;;;24.77;12.45;;;;;;;;;;6269308;28;20147;-73
2024/01/04 06:13:30;;;;;;;15.02;8.82;;;;;;;;;;6276445;28;20052;-74
2024/01/04 06:16:33;;;;;;;18.23;9.98;;;;;;;;;;6289946;28;20040;-73
2024/01/04 06:19:35;;;;;;;167.32;19.92;;;;;;;;;;6269471;28;20530;-73
2024/01/04 06:22:39;;;;;;;9.68;7.95;;;;;;;;;;6252773;28;20727;-72
2024/01/04 06:25:41;;;;;;;10.52;5.65;;;;;;;;;;6253132;28;20071;-73
2024/01/04 06:28:43;;;;;;;8.27;4.18;;;;;;;;;;6289626;28;20094;-74
2024/01/04 06:31:45;;;;;;;6.07;4.57;;;;;;;;;;6284377;28;20177;-73
2024/01/04 06:34:47;;;;;;;6.55;4.72;;;;;;;;;;6247921;28;20836;-74
2024/01/04 06:37:49;;;;;;;9.55;4.55;;;;;;;;;;6292682;28;20043;-74
2024/01/04 06:40:52;;;;;;;21.10;4.97;;;;;;;;;;6276551;28;20143;-74
2024/01/04 06:43:54;;;;;;;8.68;4.88;;;;;;;;;;6283002;28;20048;-74
2024/01/04 06:46:56;;;;;;;9.32;6.68;;;;;;;;;;6294073;28;20053;-73
2024/01/04 06:49:59;;;;;;;19.80;10.40;;;;;;;;;;6264764;28;20088;-73
2024/01/04 06:53:18;;;;;;;24.85;13.98;;;;;;;;;;6289687;28;20118;-73
2024/01/04 06:56:20;;;;;;;25.92;13.10;;;;;;;;;;6292713;28;20050;-74
2024/01/04 06:59:22;;;;;;;26.45;15.32;;;;;;;;;;6282364;28;20044;-74
2024/01/04 07:02:24;;;;;;;17.27;9.38;;;;;;;;;;6286624;28;20052;-73
2024/01/04 07:05:26;;;;;;;19.70;11.80;;;;;;;;;;6292921;28;20060;-73
2024/01/04 07:08:29;;;;;;;12.70;7.45;;;;;;;;;;6284104;28;20784;-74
2024/01/04 07:11:31;;;;;;;10.52;7.40;;;;;;;;;;6258388;28;20044;-73
2024/01/04 07:14:37;;;;;;;11.52;6.85;;;;;;;;;;6296151;28;20547;-73
2024/01/04 07:17:40;;;;;;;7.95;6.15;;;;;;;;;;6278777;28;20072;-73
2024/01/04 07:20:43;;;;;;;8.77;6.18;;;;;;;;;;6260244;28;20316;-74
2024/01/04 07:23:45;;;;;;;9.13;6.35;;;;;;;;;;6256269;28;20222;-74
2024/01/04 07:26:47;;;;;;;11.00;7.43;;;;;;;;;;6297166;28;20056;-73
2024/01/04 07:29:50;;;;;;;84.93;30.05;;;;;;;;;;6254069;28;20045;-73
2024/01/04 07:32:52;;;;;;;22.00;11.02;;;;;;;;;;6296787;28;20067;-73
2024/01/04 07:35:54;;;;;;;40.63;15.60;;;;;;;;;;6272018;28;20044;-74
2024/01/04 07:38:58;;;;;;;10.85;6.18;;;;;;;;;;6287126;28;20040;-73
2024/01/04 07:42:01;;;;;;;13.02;7.28;;;;;;;;;;6253700;28;21084;-73
2024/01/04 07:45:03;;;;;;;12.10;6.35;;;;;;;;;;6275753;28;20375;-74
2024/01/04 07:48:11;;;;;;;34.60;16.70;;;;;;;;;;6254385;28;20044;-74
2024/01/04 07:51:14;;;;;;;30.52;19.88;;;;;;;;;;6265336;28;20052;-74
2024/01/04 07:54:17;;;;;;;18.45;12.00;;;;;;;;;;6295233;28;20044;-74
2024/01/04 07:57:20;;;;;;;14.13;7.97;;;;;;;;;;6265402;28;20032;-74
2024/01/04 08:00:22;;;;;;;15.88;9.80;;;;;;;;;;6291938;28;20117;-74
2024/01/04 08:03:24;;;;;;;16.27;10.35;;;;;;;;;;6295217;28;20608;-73
2024/01/04 08:06:27;;;;;;;10.98;7.30;;;;;;;;;;6266086;28;20189;-73
2024/01/04 08:09:29;;;;;;;17.70;11.43;;;;;;;;;;6278003;28;20045;-74
2024/01/04 08:12:32;;;;;;;21.65;11.57;;;;;;;;;;6286663;28;20049;-74
2024/01/04 08:15:34;;;;;;;26.35;15.70;;;;;;;;;;6289420;28;20072;-73
2024/01/04 08:18:36;;;;;;;31.08;18.95;;;;;;;;;;6308724;28;20020;-74
2024/01/04 08:21:38;;;;;;;31.50;17.98;;;;;;;;;;6293841;28;20564;-74
2024/01/04 08:24:42;;;;;;;27.95;15.98;;;;;;;;;;6246200;28;20049;-74
2024/01/04 08:27:44;;;;;;;19.30;13.18;;;;;;;;;;6269990;28;20051;-73
2024/01/04 08:30:46;;;;;;;24.83;12.50;;;;;;;;;;6298439;28;20825;-73
2024/01/04 08:33:48;;;;;;;24.52;14.60;;;;;;;;;;6274768;28;20521;-73
2024/01/04 08:36:50;;;;;;;23.88;13.52;;;;;;;;;;6264399;28;20042;-73
2024/01/04 08:39:53;;;;;;;20.40;10.95;;;;;;;;;;6293987;28;20638;-73
2024/01/04 08:42:56;;;;;;;12.77;6.72;;;;;;;;;;6275455;28;20552;-73
2024/01/04 08:45:58;;;;;;;13.02;6.93;;;;;;;;;;6271009;28;20052;-73
2024/01/04 08:49:00;;;;;;;16.98;11.30;;;;;;;;;;6288669;28;20032;-73
2024/01/04 08:52:06;;;;;;;12.30;7.72;;;;;;;;;;6292153;28;20052;-74
2024/01/04 08:55:08;;;;;;;13.52;7.75;;;;;;;;;;6275279;28;20648;-74
2024/01/04 08:58:11;;;;;;;10.52;7.18;;;;;;;;;;6294899;28;20041;-74
2024/01/04 09:01:13;;;;;;;14.27;8.18;;;;;;;;;;6289300;28;20040;-73
2024/01/04 09:04:16;;;;;;;13.15;6.72;;;;;;;;;;6271119;28;20045;-74
2024/01/04 09:07:19;;;;;;;10.32;7.00;;;;;;;;;;6275225;28;20064;-74
2024/01/04 09:10:21;;;;;;;11.15;7.82;;;;;;;;;;6279977;28;20064;-74
2024/01/04 09:13:23;;;;;;;13.50;8.75;;;;;;;;;;6259936;28;20040;-74
2024/01/04 09:16:25;;;;;;;14.15;6.75;;;;;;;;;;6284348;28;20055;-74
2024/01/04 09:19:27;;;;;;;18.27;9.40;;;;;;;;;;6284432;28;20036;-73
2024/01/04 09:22:30;;;;;;;17.52;11.13;;;;;;;;;;6282469;28;20059;-73
2024/01/04 09:25:33;;;;;;;25.50;14.02;;;;;;;;;;6301419;28;20052;-74
2024/01/04 09:28:35;;;;;;;29.98;14.07;;;;;;;;;;6294312;28;20056;-73
2024/01/04 09:31:38;;;;;;;20.00;11.55;;;;;;;;;;6299885;28;20067;-74
2024/01/04 09:34:40;;;;;;;49.38;23.73;;;;;;;;;;6265013;28;20056;-74
2024/01/04 09:37:43;;;;;;;15.00;8.88;;;;;;;;;;6277712;28;20843;-73
2024/01/04 09:40:46;;;;;;;12.75;8.38;;;;;;;;;;6289512;28;20060;-73
2024/01/04 09:43:54;;;;;;;26.52;17.92;;;;;;;;;;6284450;28;20174;-73
2024/01/04 09:46:57;;;;;;;22.02;13.32;;;;;;;;;;6263064;28;20040;-73
2024/01/04 09:49:59;;;;;;;10.60;5.93;;;;;;;;;;6250179;28;20047;-73
2024/01/04 09:53:02;;;;;;;8.13;5.10;;;;;;;;;;6263150;28;20642;-73
2024/01/04 09:56:06;;;;;;;8.00;3.83;;;;;;;;;;6265880;28;20052;-73
2024/01/04 09:59:10;;;;;;;6.15;3.28;;;;;;;;;;6277304;28;20041;-73
2024/01/04 10:02:18;;;;;;;6.45;3.28;;;;;;;;;;6260441;28;20128;-73
2024/01/04 10:05:20;;;;;;;9.13;4.15;;;;;;;;;;6266839;28;20746;-73
2024/01/04 10:08:29;;;;;;;12.75;6.38;;;;;;;;;;6264943;28;20052;-73
2024/01/04 10:11:37;;;;;;;20.65;15.48;;;;;;;;;;6256181;28;20912;-73
2024/01/04 10:14:39;;;;;;;13.38;10.32;;;;;;;;;;6273633;28;20053;-73
2024/01/04 10:17:45;;;;;;;10.27;7.47;;;;;;;;;;6286880;28;20048;-73
2024/01/04 10:21:05;;;;;;;14.25;10.25;;;;;;;;;;6270634;28;20192;-73
2024/01/04 10:24:10;;;;;;;8.40;5.97;;;;;;;;;;6282272;28;20041;-73
2024/01/04 10:27:15;;;;;;;13.20;7.20;;;;;;;;;;6272672;28;20049;-73
2024/01/04 10:30:17;;;;;;;7.88;3.60;;;;;;;;;;6287712;28;20507;-74
2024/01/04 10:33:21;;;;;;;9.85;4.63;;;;;;;;;;6294958;28;20107;-72
2024/01/04 10:36:29;;;;;;;7.60;3.70;;;;;;;;;;6300867;28;20045;-72
2024/01/04 10:39:31;;;;;;;8.77;3.42;;;;;;;;;;6279527;28;20054;-74
2024/01/04 10:42:33;;;;;;;5.40;2.70;;;;;;;;;;6322245;28;20035;-74
2024/01/04 10:45:37;;;;;;;6.35;2.88;;;;;;;;;;6315793;28;20093;-72
2024/01/04 10:48:39;;;;;;;5.22;2.47;;;;;;;;;;6282927;28;20101;-72
2024/01/04 10:51:43;;;;;;;4.80;2.22;;;;;;;;;;6297236;28;20036;-72
2024/01/04 10:54:46;;;;;;;4.35;1.95;;;;;;;;;;6267276;28;20040;-72
2024/01/04 10:57:49;;;;;;;5.25;1.92;;;;;;;;;;6273982;28;20058;-72
2024/01/04 11:00:52;;;;;;;4.25;2.28;;;;;;;;;;6288961;28;20052;-73
2024/01/04 11:03:55;;;;;;;5.10;1.80;;;;;;;;;;6280860;28;20053;-73
2024/01/04 11:06:58;;;;;;;4.32;2.30;;;;;;;;;;6274835;28;20052;-72
2024/01/04 11:10:00;;;;;;;3.42;1.60;;;;;;;;;;6300202;28;20052;-73
2024/01/04 11:13:03;;;;;;;3.90;1.85;;;;;;;;;;6270475;28;20873;-72
2024/01/04 11:16:36;;;;;;;7.32;1.83;;;;;;;;;;6272302;28;20040;-73
2024/01/04 11:19:47;;;;;;;5.43;1.50;;;;;;;;;;6244264;28;20057;-73
2024/01/04 11:23:03;;;;;;;2.90;1.13;;;;;;;;;;6278455;28;20596;-73
2024/01/04 11:26:26;;;;;;;5.20;1.40;;;;;;;;;;6288753;28;20043;-74
2024/01/04 11:29:36;;;;;;;5.85;2.45;;;;;;;;;;6301441;28;20512;-73
2024/01/04 11:32:38;;;;;;;6.88;1.85;;;;;;;;;;6259141;28;20093;-73
2024/01/04 11:35:41;;;;;;;6.20;1.98;;;;;;;;;;6290118;28;20075;-73
2024/01/04 11:38:45;;;;;;;4.13;1.70;;;;;;;;;;6284707;28;20056;-74
2024/01/04 11:41:47;;;;;;;4.82;1.80;;;;;;;;;;6286017;28;20052;-74
2024/01/04 11:44:50;;;;;;;6.97;2.58;;;;;;;;;;6279031;28;20320;-74
2024/01/04 11:47:52;;;;;;;4.32;2.58;;;;;;;;;;6281459;28;20040;-74
2024/01/04 11:50:57;;;;;;;6.75;3.10;;;;;;;;;;6259756;28;20056;-73
2024/01/04 11:54:00;;;;;;;9.25;5.10;;;;;;;;;;6273472;28;20536;-74
2024/01/04 11:57:19;;;;;;;7.75;3.60;;;;;;;;;;6272378;28;20044;-73
2024/01/04 12:00:22;;;;;;;6.75;3.47;;;;;;;;;;6278151;28;20426;-73
2024/01/04 12:03:29;;;;;;;5.72;2.35;;;;;;;;;;6270804;28;20052;-74
2024/01/04 12:06:31;;;;;;;4.90;2.55;;;;;;;;;;6273745;28;20429;-73
2024/01/04 12:09:33;;;;;;;6.72;2.75;;;;;;;;;;6274717;28;20574;-73
2024/01/04 12:12:39;;;;;;;5.70;1.75;;;;;;;;;;6283390;28;20056;-74
2024/01/04 12:15:42;;;;;;;3.88;2.35;;;;;;;;;;6291113;28;20252;-75
2024/01/04 12:18:45;;;;;;;3.63;1.63;;;;;;;;;;6288603;28;20037;-74
2024/01/04 12:21:47;;;;;;;4.65;2.35;;;;;;;;;;6268572;28;20053;-74
2024/01/04 12:24:49;;;;;;;4.32;1.70;;;;;;;;;;6283490;28;20048;-73
2024/01/04 12:27:51;;;;;;;6.32;2.70;;;;;;;;;;6290387;28;20049;-75
2024/01/04 12:30:53;;;;;;;4.15;1.95;;;;;;;;;;6274461;28;20435;-74
2024/01/04 12:33:58;;;;;;;4.50;1.60;;;;;;;;;;6277393;28;20071;-75
2024/01/04 12:37:06;;;;;;;6.00;2.90;;;;;;;;;;6264378;28;20048;-76
2024/01/04 12:40:12;;;;;;;5.97;1.75;;;;;;;;;;6261754;28;20071;-74
2024/01/04 12:43:15;;;;;;;5.97;2.85;;;;;;;;;;6274496;28;20049;-74
2024/01/04 12:46:20;;;;;;;4.88;2.40;;;;;;;;;;6292978;28;20072;-75
2024/01/04 12:49:22;;;;;;;8.57;2.80;;;;;;;;;;6287094;28;20847;-74
2024/01/04 12:52:26;;;;;;;5.22;3.47;;;;;;;;;;6289752;28;20727;-74
2024/01/04 12:55:29;;;;;;;6.68;2.80;;;;;;;;;;6302028;28;20040;-73
2024/01/04 12:58:32;;;;;;;18.90;7.35;;;;;;;;;;6271663;28;20047;-75
2024/01/04 13:01:35;;;;;;;19.00;6.47;;;;;;;;;;6285228;28;20063;-76
2024/01/04 13:04:37;;;;;;;14.73;5.72;;;;;;;;;;6301763;28;20113;-76
2024/01/04 13:07:39;;;;;;;7.30;3.78;;;;;;;;;;6263224;28;20052;-75
2024/01/04 13:10:41;;;;;;;11.05;5.28;;;;;;;;;;6300668;28;20044;-75
2024/01/04 13:13:44;;;;;;;6.05;2.88;;;;;;;;;;6286001;28;20365;-75
2024/01/04 13:16:50;;;;;;;4.95;2.05;;;;;;;;;;6273930;28;20434;-75
2024/01/04 13:19:52;;;;;;;3.78;1.20;;;;;;;;;;6294554;28;20041;-74
2024/01/04 13:22:55;;;;;;;2.38;1.40;;;;;;;;;;6266056;28;20087;-74
2024/01/04 13:25:57;;;;;;;2.85;1.00;;;;;;;;;;6268955;28;20138;-75
2024/01/04 13:29:00;;;;;;;10.30;6.25;;;;;;;;;;6269893;28;20068;-73
2024/01/04 13:32:03;;;;;;;2.60;1.20;;;;;;;;;;6274589;28;20130;-74
2024/01/04 13:35:05;;;;;;;3.50;2.05;;;;;;;;;;6268729;28;20055;-74
2024/01/04 13:38:07;;;;;;;3.47;1.63;;;;;;;;;;6288889;28;20131;-75
2024/01/04 13:41:10;;;;;;;2.50;1.38;;;;;;;;;;6274252;28;20161;-75
2024/01/04 13:44:13;;;;;;;5.65;1.98;;;;;;;;;;6269907;28;20146;-75
2024/01/04 13:47:16;;;;;;;3.25;1.98;;;;;;;;;;6264360;28;20048;-75
2024/01/04 13:50:21;;;;;;;5.78;2.28;;;;;;;;;;6267205;28;20388;-74
2024/01/04 13:53:24;;;;;;;10.45;6.22;;;;;;;;;;6280818;28;20534;-73
2024/01/04 13:56:26;;;;;;;11.82;3.25;;;;;;;;;;6295501;28;20051;-73
2024/01/04 13:59:29;;;;;;;5.80;3.40;;;;;;;;;;6274755;28;20059;-74
2024/01/04 14:02:32;;;;;;;10.35;4.35;;;;;;;;;;6281358;28;20059;-74
2024/01/04 14:05:35;;;;;;;11.50;3.42;;;;;;;;;;6272143;28;20045;-73
2024/01/04 14:08:45;;;;;;;9.38;2.33;;;;;;;;;;6288961;28;20040;-77
2024/01/04 14:11:48;;;;;;;8.80;4.45;;;;;;;;;;6288036;28;20064;-75
2024/01/04 14:14:50;;;;;;;6.18;4.55;;;;;;;;;;6290683;28;20040;-73
2024/01/04 14:17:53;;;;;;;6.68;2.28;;;;;;;;;;6274767;28;20048;-74
2024/01/04 14:20:56;;;;;;;8.52;3.63;;;;;;;;;;6304834;28;20489;-72
2024/01/04 14:23:58;;;;;;;3.97;2.20;;;;;;;;;;6299785;28;20050;-72
2024/01/04 14:27:01;;;;;;;5.13;2.33;;;;;;;;;;6276171;28;20095;-74
2024/01/04 14:30:05;;;;;;;4.07;2.15;;;;;;;;;;6291147;28;20047;-75
2024/01/04 14:33:09;;;;;;;5.30;2.20;;;;;;;;;;6304983;28;20056;-76
2024/01/04 14:36:14;;;;;;;2.75;1.40;;;;;;;;;;6264508;28;20050;-76
2024/01/04 14:39:21;;;;;;;5.18;2.53;;;;;;;;;;6284334;28;20049;-74
2024/01/04 14:42:23;;;;;;;6.47;3.72;;;;;;;;;;6273251;28;20052;-74
2024/01/04 14:45:28;;;;;;;3.63;2.03;;;;;;;;;;6301060;28;20056;-73
2024/01/04 14:48:31;;;;;;;9.18;4.78;;;;;;;;;;6292304;28;20049;-76
2024/01/04 14:51:34;;;;;;;4.65;3.28;;;;;;;;;;6284129;28;20068;-77
2024/01/04 14:54:37;;;;;;;5.78;3.28;;;;;;;;;;6289853;28;20151;-76
2024/01/04 14:57:42;;;;;;;5.03;2.22;;;;;;;;;;6252548;28;20193;-76
2024/01/04 15:00:44;;;;;;;5.78;1.45;;;;;;;;;;6281539;28;20075;-76
2024/01/04 15:03:47;;;;;;;3.35;2.95;;;;;;;;;;6265665;28;20051;-75
2024/01/04 15:06:52;;;;;;;5.63;2.65;;;;;;;;;;6273040;28;20071;-75
2024/01/04 15:09:54;;;;;;;5.85;2.78;;;;;;;;;;6283758;28;20074;-73
2024/01/04 15:12:56;;;;;;;8.63;5.18;;;;;;;;;;6269532;28;20054;-75
2024/01/04 15:16:01;;;;;;;10.88;2.75;;;;;;;;;;6288327;28;20805;-73
2024/01/04 15:19:03;;;;;;;5.15;2.90;;;;;;;;;;6274825;28;20044;-74
2024/01/04 15:22:05;;;;;;;5.75;3.20;;;;;;;;;;6270282;28;20040;-75
2024/01/04 15:25:08;;;;;;;7.15;3.63;;;;;;;;;;6260728;28;20090;-74
2024/01/04 15:28:11;;;;;;;6.20;4.38;;;;;;;;;;6299188;28;20127;-74
2024/01/04 15:31:16;;;;;;;15.98;10.18;;;;;;;;;;6282683;28;20044;-75
2024/01/04 15:34:18;;;;;;;11.10;7.45;;;;;;;;;;6247923;28;20045;-74
2024/01/04 15:37:21;;;;;;;14.75;9.25;;;;;;;;;;6266041;28;20040;-74
2024/01/04 15:40:25;;;;;;;6.72;5.60;;;;;;;;;;6265679;28;20471;-74
2024/01/04 15:43:28;;;;;;;11.07;6.88;;;;;;;;;;6290113;28;20051;-75
2024/01/04 15:46:30;;;;;;;8.40;7.00;;;;;;;;;;6282345;28;20041;-75
2024/01/04 15:49:33;;;;;;;12.93;8.32;;;;;;;;;;6287503;28;20159;-75
2024/01/04 15:52:35;;;;;;;10.00;5.90;;;;;;;;;;6281266;28;20083;-76
2024/01/04 15:55:37;;;;;;;9.25;6.55;;;;;;;;;;6268443;28;20044;-74
2024/01/04 15:58:40;;;;;;;9.00;5.95;;;;;;;;;;6279156;28;20073;-74
2024/01/04 16:01:43;;;;;;;9.60;6.57;;;;;;;;;;6283082;28;20518;-75
2024/01/04 16:04:46;;;;;;;6.85;4.78;;;;;;;;;;6250956;28;20072;-74
2024/01/04 16:07:48;;;;;;;6.65;4.03;;;;;;;;;;6282539;28;20048;-75
2024/01/04 16:10:50;;;;;;;7.60;4.38;;;;;;;;;;6279714;28;20056;-74
2024/01/04 16:13:52;;;;;;;7.32;4.82;;;;;;;;;;6260165;28;20044;-74
2024/01/04 16:16:54;;;;;;;11.00;7.68;;;;;;;;;;6269288;28;20059;-75
2024/01/04 16:19:57;;;;;;;12.00;9.13;;;;;;;;;;6262363;28;20118;-75
2024/01/04 16:22:59;;;;;;;9.52;5.38;;;;;;;;;;6249831;28;20060;-74
2024/01/04 16:26:01;;;;;;;14.90;7.80;;;;;;;;;;6254941;28;20060;-75
2024/01/04 16:29:03;;;;;;;7.65;4.72;;;;;;;;;;6280363;28;20051;-75
2024/01/04 16:32:05;;;;;;;6.65;5.45;;;;;;;;;;6272398;28;20113;-75
2024/01/04 16:35:09;;;;;;;10.15;5.75;;;;;;;;;;6289054;28;20193;-75
2024/01/04 16:38:11;;;;;;;9.55;4.43;;;;;;;;;;6289690;28;20098;-74
2024/01/04 16:41:13;;;;;;;7.45;3.88;;;;;;;;;;6261007;28;20415;-75
2024/01/04 16:44:15;;;;;;;8.27;6.00;;;;;;;;;;6282234;28;20144;-74
2024/01/04 16:47:18;;;;;;;7.03;4.13;;;;;;;;;;6285360;28;20147;-75
2024/01/04 16:50:21;;;;;;;14.98;8.82;;;;;;;;;;6290726;28;20060;-74
2024/01/04 16:53:23;;;;;;;8.38;5.82;;;;;;;;;;6297669;28;20038;-74
2024/01/04 16:56:26;;;;;;;6.13;3.65;;;;;;;;;;6291397;28;20055;-74
2024/01/04 16:59:29;;;;;;;12.55;7.15;;;;;;;;;;6271488;28;20040;-74
2024/01/04 17:02:52;;;;;;;5.10;3.75;;;;;;;;;;6265910;28;20057;-73
2024/01/04 17:06:14;;;;;;;8.82;4.97;;;;;;;;;;6282363;28;20179;-75
2024/01/04 17:09:17;;;;;;;9.77;4.68;;;;;;;;;;6267219;28;20083;-75
2024/01/04 17:12:19;;;;;;;10.98;6.95;;;;;;;;;;6291269;28;20215;-74
2024/01/04 17:15:22;;;;;;;11.05;7.07;;;;;;;;;;6263660;28;20536;-74
2024/01/04 17:18:25;;;;;;;12.07;8.98;;;;;;;;;;6281292;28;20748;-75
2024/01/04 17:21:28;;;;;;;10.93;6.35;;;;;;;;;;6263557;28;20059;-75
2024/01/04 17:24:31;;;;;;;13.65;7.18;;;;;;;;;;6281522;28;20051;-74
2024/01/04 17:27:33;;;;;;;13.82;8.88;;;;;;;;;;6280922;28;20059;-74
2024/01/04 17:30:38;;;;;;;11.82;6.95;;;;;;;;;;6266034;28;20467;-74
2024/01/04 17:33:42;;;;;;;13.13;8.70;;;;;;;;;;6264929;28;20610;-75
2024/01/04 17:36:44;;;;;;;11.30;9.07;;;;;;;;;;6283600;28;20036;-73
2024/01/04 17:39:46;;;;;;;14.35;7.45;;;;;;;;;;6276269;28;20044;-73
2024/01/04 17:42:48;;;;;;;10.40;6.63;;;;;;;;;;6292663;28;20048;-73
2024/01/04 17:45:51;;;;;;;12.02;8.02;;;;;;;;;;6287190;28;20741;-73
2024/01/04 17:48:56;;;;;;;14.57;8.00;;;;;;;;;;6271160;28;20597;-73
2024/01/04 17:51:58;;;;;;;13.63;7.68;;;;;;;;;;6299435;28;20048;-73
2024/01/04 17:55:00;;;;;;;14.18;7.25;;;;;;;;;;6260218;28;20040;-73
2024/01/04 17:58:03;;;;;;;10.77;6.43;;;;;;;;;;6265518;28;20070;-73
2024/01/04 18:01:05;;;;;;;10.68;6.55;;;;;;;;;;6233456;28;20060;-74
2024/01/04 18:04:08;;;;;;;8.13;6.30;;;;;;;;;;6294706;28;20689;-75
2024/01/04 18:07:11;;;;;;;12.10;6.78;;;;;;;;;;6313220;28;20139;-74
2024/01/04 18:10:13;;;;;;;10.80;7.03;;;;;;;;;;6270300;28;20032;-75